Time;durP1;ratioP1;P1;durP2;ratioP2;P2;SDS_P1;SDS_P2;PMS_P1;PMS_P2;Temp;Humidity;BMP_temperature;BMP_pressure;BME280_temperature;BME280_humidity;BME280_pressure;Samples;Min_cycle;Max_cycle;Signal;HPM_P1;HPM_P2
2021/10/11 00:02:03;;;;;;;31.45;22.42;;;4.30;99.90;;;;;;5086665;28;20262;-52
2021/10/11 00:04:30;;;;;;;37.95;25.38;;;4.40;99.90;;;;;;5074289;28;20450;-45
2021/10/11 00:06:57;;;;;;;40.90;26.92;;;4.40;99.90;;;;;;5089140;28;20201;-45
2021/10/11 00:09:25;;;;;;;31.08;23.45;;;4.30;99.90;;;;;;5095727;28;20265;-47
2021/10/11 00:11:52;;;;;;;33.67;23.08;;;4.40;99.90;;;;;;5086288;28;20197;-46
2021/10/11 00:14:19;;;;;;;39.35;25.67;;;4.40;99.90;;;;;;5094687;28;20518;-44
2021/10/11 00:16:46;;;;;;;40.83;25.52;;;4.40;99.90;;;;;;5090645;28;20252;-44
2021/10/11 00:19:14;;;;;;;41.20;25.42;;;4.20;99.90;;;;;;5082345;28;20208;-52
2021/10/11 00:21:41;;;;;;;39.28;26.25;;;4.20;99.90;;;;;;5091948;28;20223;-43
2021/10/11 00:24:08;;;;;;;38.17;28.27;;;4.20;99.90;;;;;;5088985;28;20228;-51
2021/10/11 00:26:35;;;;;;;38.80;25.00;;;4.30;99.90;;;;;;5090425;28;20429;-44
2021/10/11 00:29:03;;;;;;;36.20;25.33;;;4.30;99.90;;;;;;5087488;28;20228;-47
2021/10/11 00:31:30;;;;;;;34.50;24.75;;;4.20;99.90;;;;;;5092149;28;20196;-44
2021/10/11 00:33:57;;;;;;;45.53;26.88;;;4.20;99.90;;;;;;5093728;28;20216;-46
2021/10/11 00:36:25;;;;;;;37.90;26.38;;;4.20;99.90;;;;;;5093953;28;20195;-46
2021/10/11 00:38:52;;;;;;;48.35;27.38;;;4.10;99.90;;;;;;5086229;28;20548;-44
2021/10/11 00:41:19;;;;;;;41.35;28.25;;;4.20;99.90;;;;;;5091896;28;20322;-49
2021/10/11 00:43:47;;;;;;;35.20;25.52;;;4.20;99.90;;;;;;5093267;28;20223;-44
2021/10/11 00:46:14;;;;;;;31.60;23.70;;;4.20;99.90;;;;;;5087133;28;20205;-47
2021/10/11 00:48:41;;;;;;;35.10;24.83;;;4.10;99.90;;;;;;5098886;28;20187;-46
2021/10/11 00:51:09;;;;;;;42.10;27.58;;;4.00;99.90;;;;;;5094755;28;20567;-46
2021/10/11 00:53:36;;;;;;;37.08;26.25;;;4.00;99.90;;;;;;5099379;28;20267;-45
2021/10/11 00:56:03;;;;;;;38.15;25.58;;;3.90;99.90;;;;;;5094639;28;20269;-45
2021/10/11 00:58:30;;;;;;;45.63;30.50;;;3.90;99.90;;;;;;5102473;28;20424;-44
2021/10/11 01:00:57;;;;;;;38.75;26.90;;;3.90;99.90;;;;;;5092688;28;20204;-44
2021/10/11 01:03:25;;;;;;;41.25;27.90;;;3.80;99.90;;;;;;5095124;28;20227;-44
2021/10/11 01:05:53;;;;;;;42.03;26.13;;;3.90;99.90;;;;;;5097032;28;20206;-46
2021/10/11 01:08:20;;;;;;;47.38;29.77;;;3.80;99.90;;;;;;5087646;28;20544;-48
2021/10/11 01:10:48;;;;;;;42.38;28.15;;;3.80;99.90;;;;;;5097824;28;20269;-48
2021/10/11 01:13:16;;;;;;;42.88;26.70;;;3.90;99.90;;;;;;5095600;28;20401;-48
2021/10/11 01:15:43;;;;;;;38.45;27.27;;;3.70;99.90;;;;;;5101447;28;20199;-43
2021/10/11 01:18:10;;;;;;;43.08;28.33;;;3.70;99.90;;;;;;5090873;28;20261;-45
2021/10/11 01:20:37;;;;;;;42.15;30.40;;;3.70;99.90;;;;;;5095166;28;20195;-44
2021/10/11 01:23:05;;;;;;;45.65;30.65;;;3.70;99.90;;;;;;5094166;28;20440;-53
2021/10/11 01:25:32;;;;;;;44.85;30.25;;;3.80;99.90;;;;;;5095907;28;20198;-43
2021/10/11 01:27:59;;;;;;;49.60;28.95;;;3.80;99.90;;;;;;5098151;28;20242;-47
2021/10/11 01:30:27;;;;;;;47.92;30.92;;;3.80;99.90;;;;;;5096225;28;20219;-46
2021/10/11 01:32:54;;;;;;;37.22;27.08;;;3.60;99.90;;;;;;5091703;28;20215;-47
2021/10/11 01:35:22;;;;;;;51.58;30.88;;;3.50;99.90;;;;;;5093050;28;20194;-45
2021/10/11 01:37:50;;;;;;;47.85;29.58;;;3.50;99.90;;;;;;5092523;28;20195;-46
2021/10/11 01:40:19;;;;;;;42.88;29.58;;;3.50;99.90;;;;;;5094933;28;20235;-47
2021/10/11 01:42:47;;;;;;;49.47;32.92;;;3.60;99.90;;;;;;5083825;28;20218;-46
2021/10/11 01:45:14;;;;;;;45.22;29.50;;;3.60;99.90;;;;;;5099285;28;20229;-46
2021/10/11 01:47:42;;;;;;;58.53;33.88;;;3.60;99.90;;;;;;5091978;28;20468;-45
2021/10/11 01:50:09;;;;;;;54.00;32.30;;;3.60;99.90;;;;;;5087798;28;20508;-49
2021/10/11 01:52:39;;;;;;;49.72;31.88;;;3.60;99.90;;;;;;5094549;28;20276;-51
2021/10/11 01:55:08;;;;;;;54.35;32.95;;;3.60;99.90;;;;;;5094224;28;20195;-44
2021/10/11 01:57:36;;;;;;;45.15;30.92;;;3.50;99.90;;;;;;5088985;28;20198;-52
2021/10/11 02:00:06;;;;;;;50.92;31.10;;;3.60;99.90;;;;;;5098721;28;20199;-49
2021/10/11 02:06:14;;;;;;;50.63;32.80;;;3.60;99.90;;;;;;5094551;28;20295;-49
2021/10/11 02:08:41;;;;;;;50.72;33.13;;;3.50;99.90;;;;;;5088080;28;20260;-46
2021/10/11 02:11:08;;;;;;;56.55;35.70;;;3.50;99.90;;;;;;5093487;28;20231;-52
2021/10/11 02:13:36;;;;;;;45.10;30.25;;;3.40;99.90;;;;;;5090491;28;20223;-46
2021/10/11 02:16:03;;;;;;;48.70;33.72;;;3.40;99.90;;;;;;5100405;28;20207;-49
2021/10/11 02:18:30;;;;;;;53.85;33.72;;;3.30;99.90;;;;;;5102996;28;20461;-49
2021/10/11 02:20:57;;;;;;;48.53;32.80;;;3.40;99.90;;;;;;5089778;28;20221;-45
2021/10/11 02:23:26;;;;;;;48.50;34.08;;;3.40;99.90;;;;;;5094062;28;20229;-43
2021/10/11 02:25:54;;;;;;;56.10;36.88;;;3.50;99.90;;;;;;5087552;28;20252;-52
2021/10/11 02:28:21;;;;;;;54.42;35.95;;;3.50;99.90;;;;;;5079935;28;20194;-46
2021/10/11 02:30:48;;;;;;;53.97;37.15;;;3.50;99.90;;;;;;5095853;28;20249;-45
2021/10/11 02:33:15;;;;;;;62.05;38.90;;;3.40;99.90;;;;;;5091019;28;20252;-48
2021/10/11 02:35:42;;;;;;;54.95;36.50;;;3.40;99.90;;;;;;5096403;28;20259;-45
2021/10/11 02:38:10;;;;;;;51.15;38.25;;;3.30;99.90;;;;;;5093174;28;20437;-45
2021/10/11 02:40:39;;;;;;;55.15;36.13;;;3.30;99.90;;;;;;5097153;28;20508;-46
2021/10/11 02:43:06;;;;;;;51.88;35.97;;;3.30;99.90;;;;;;5093216;28;20648;-46
2021/10/11 02:45:34;;;;;;;56.28;38.58;;;3.30;99.90;;;;;;5082219;28;20268;-43
2021/10/11 02:48:05;;;;;;;75.65;39.85;;;3.30;99.90;;;;;;5091032;28;20199;-43
2021/10/11 02:50:33;;;;;;;59.00;37.15;;;3.30;99.90;;;;;;5099675;28;20495;-48
2021/10/11 02:53:00;;;;;;;64.15;39.03;;;3.30;99.90;;;;;;5095315;28;20342;-43
2021/10/11 02:55:28;;;;;;;59.65;39.67;;;3.30;99.90;;;;;;5091682;28;20202;-45
2021/10/11 02:57:55;;;;;;;73.07;42.10;;;3.30;99.90;;;;;;5097680;28;20249;-45
2021/10/11 03:00:22;;;;;;;58.92;39.22;;;3.00;99.90;;;;;;5091263;28;20560;-50
2021/10/11 03:02:49;;;;;;;58.58;40.17;;;3.10;99.90;;;;;;5094494;28;20252;-45
2021/10/11 03:05:16;;;;;;;64.22;40.25;;;3.20;99.90;;;;;;5093536;28;20252;-53
2021/10/11 03:07:43;;;;;;;53.03;38.10;;;3.10;99.90;;;;;;5094361;28;20252;-50
2021/10/11 03:10:11;;;;;;;54.97;38.35;;;3.10;99.90;;;;;;5095725;28;20210;-50
2021/10/11 03:12:39;;;;;;;62.25;38.50;;;3.10;99.90;;;;;;5094285;28;20287;-47
2021/10/11 03:15:07;;;;;;;62.90;43.30;;;3.20;99.90;;;;;;5097594;28;20194;-45
2021/10/11 03:17:34;;;;;;;77.70;45.92;;;3.10;99.90;;;;;;5088812;28;20191;-45
2021/10/11 03:20:04;;;;;;;56.30;41.45;;;3.10;99.90;;;;;;5095352;28;20498;-44
2021/10/11 03:22:30;;;;;;;57.47;41.25;;;3.10;99.90;;;;;;5089282;28;20611;-45
2021/10/11 03:24:58;;;;;;;63.72;39.50;;;3.10;99.90;;;;;;5093721;28;20198;-46
2021/10/11 03:27:25;;;;;;;63.03;38.97;;;3.00;99.90;;;;;;5095086;28;20220;-44
2021/10/11 03:29:52;;;;;;;50.05;36.42;;;3.00;99.90;;;;;;5088899;28;20227;-44
2021/10/11 03:32:19;;;;;;;67.05;39.92;;;3.00;99.90;;;;;;5085415;28;20467;-47
2021/10/11 03:34:47;;;;;;;52.45;36.67;;;3.00;99.90;;;;;;5084813;28;20202;-47
2021/10/11 03:37:14;;;;;;;52.13;39.22;;;2.90;99.90;;;;;;5097445;28;20206;-47
2021/10/11 03:39:41;;;;;;;60.17;38.58;;;2.90;99.90;;;;;;5091199;28;20194;-46
2021/10/11 03:42:09;;;;;;;56.90;36.55;;;2.80;99.90;;;;;;5097976;28;20311;-43
2021/10/11 03:44:36;;;;;;;65.63;39.75;;;2.80;99.90;;;;;;5094812;28;20233;-43
2021/10/11 03:47:03;;;;;;;53.88;36.97;;;2.90;99.90;;;;;;5092228;28;20194;-45
2021/10/11 03:49:31;;;;;;;54.67;35.30;;;2.90;99.90;;;;;;5098383;28;20194;-44
2021/10/11 03:51:58;;;;;;;58.10;38.22;;;2.90;99.90;;;;;;5090032;28;20241;-48
2021/10/11 03:54:25;;;;;;;56.00;36.30;;;2.90;99.90;;;;;;5095498;28;20194;-45
2021/10/11 03:56:53;;;;;;;49.38;36.53;;;2.80;99.90;;;;;;5094073;28;20195;-44
2021/10/11 03:59:20;;;;;;;62.05;39.22;;;2.80;99.90;;;;;;5085993;28;20501;-46
2021/10/11 04:01:47;;;;;;;60.13;37.80;;;2.70;99.90;;;;;;5090779;28;20205;-48
2021/10/11 04:04:14;;;;;;;52.08;35.97;;;2.70;99.90;;;;;;5096139;28;20230;-48
2021/10/11 04:06:43;;;;;;;49.13;33.17;;;2.70;99.90;;;;;;5070087;28;20394;-45
2021/10/11 04:09:10;;;;;;;85.78;51.40;;;2.70;99.90;;;;;;5083864;28;20579;-44
2021/10/11 04:11:37;;;;;;;72.53;44.60;;;2.70;99.90;;;;;;5093352;28;20238;-49
2021/10/11 04:14:04;;;;;;;68.47;39.70;;;2.70;99.90;;;;;;5079020;28;20230;-46
2021/10/11 04:16:31;;;;;;;57.45;39.53;;;2.60;99.90;;;;;;5089313;28;20235;-45
2021/10/11 04:18:58;;;;;;;72.30;45.35;;;2.70;99.90;;;;;;5093596;28;20209;-45
2021/10/11 04:21:26;;;;;;;66.35;41.75;;;2.60;99.90;;;;;;5082785;28;20207;-46
2021/10/11 04:23:53;;;;;;;62.25;38.75;;;2.60;99.90;;;;;;5094495;28;20226;-50
2021/10/11 04:26:20;;;;;;;77.53;48.97;;;2.60;99.90;;;;;;5088376;28;20214;-46
2021/10/11 04:28:47;;;;;;;62.15;41.08;;;2.70;99.90;;;;;;5097572;28;20245;-45
2021/10/11 04:31:14;;;;;;;69.75;40.97;;;2.70;99.90;;;;;;5087400;28;20541;-49
2021/10/11 04:33:41;;;;;;;69.15;43.08;;;2.60;99.90;;;;;;5093069;28;20387;-49
2021/10/11 04:36:09;;;;;;;58.53;39.20;;;2.60;99.90;;;;;;5079259;28;20503;-45
2021/10/11 04:38:36;;;;;;;47.30;34.53;;;2.60;99.90;;;;;;5094525;28;20489;-46
2021/10/11 04:41:03;;;;;;;51.47;34.38;;;2.50;99.90;;;;;;5097462;28;20255;-51
2021/10/11 04:43:30;;;;;;;47.15;32.65;;;2.50;99.90;;;;;;5094490;28;20230;-44
2021/10/11 04:45:58;;;;;;;51.70;32.67;;;2.50;99.90;;;;;;5098278;28;20198;-47
2021/10/11 04:48:25;;;;;;;46.20;31.63;;;2.50;99.90;;;;;;5086300;28;20245;-43
2021/10/11 04:50:53;;;;;;;52.55;33.05;;;2.50;99.90;;;;;;5079235;28;20222;-47
2021/10/11 04:53:19;;;;;;;46.22;30.98;;;2.40;99.90;;;;;;5087697;28;20425;-46
2021/10/11 04:55:46;;;;;;;53.38;32.42;;;2.40;99.90;;;;;;5093000;28;20345;-46
2021/10/11 04:58:13;;;;;;;51.67;35.25;;;2.50;99.90;;;;;;5087973;28;20261;-45
2021/10/11 05:00:41;;;;;;;60.45;32.20;;;2.50;99.90;;;;;;5092755;28;20207;-44
2021/10/11 05:03:08;;;;;;;52.25;33.17;;;2.50;99.90;;;;;;5093667;28;20264;-46
2021/10/11 05:05:36;;;;;;;45.83;31.65;;;2.50;99.90;;;;;;5086721;28;20248;-49
2021/10/11 05:08:03;;;;;;;53.17;33.95;;;2.50;99.90;;;;;;5093926;28;20236;-45
2021/10/11 05:10:31;;;;;;;53.53;33.30;;;2.50;99.90;;;;;;5090879;28;20214;-44
2021/10/11 05:12:59;;;;;;;45.10;33.88;;;2.50;99.90;;;;;;5092400;28;20267;-45
2021/10/11 05:15:26;;;;;;;43.13;31.40;;;2.50;99.90;;;;;;5087704;28;20195;-49
2021/10/11 05:17:53;;;;;;;56.92;32.55;;;2.60;99.90;;;;;;5093647;28;20217;-47
2021/10/11 05:20:20;;;;;;;49.33;33.83;;;2.60;99.90;;;;;;5089859;28;20253;-45
2021/10/11 05:22:48;;;;;;;46.95;30.55;;;2.60;99.90;;;;;;5088828;28;20296;-47
2021/10/11 05:25:15;;;;;;;51.28;32.05;;;2.60;99.90;;;;;;5094535;28;20198;-45
2021/10/11 05:27:42;;;;;;;45.63;32.35;;;2.60;99.90;;;;;;5089990;28;20301;-46
2021/10/11 05:30:10;;;;;;;44.58;31.63;;;2.70;99.90;;;;;;5096417;28;20202;-45
2021/10/11 05:32:37;;;;;;;51.97;30.00;;;2.80;99.90;;;;;;5091500;28;20257;-46
2021/10/11 05:35:06;;;;;;;43.63;32.47;;;2.90;99.90;;;;;;5096733;28;20240;-44
2021/10/11 05:37:36;;;;;;;53.08;31.58;;;2.80;99.90;;;;;;5090838;28;20242;-43
2021/10/11 05:40:08;;;;;;;55.33;32.40;;;2.90;99.90;;;;;;5089321;28;20256;-46
2021/10/11 05:42:35;;;;;;;49.15;32.35;;;3.00;99.90;;;;;;5093355;28;20215;-47
2021/10/11 05:45:03;;;;;;;43.75;27.20;;;3.00;99.90;;;;;;5092166;28;20240;-47
2021/10/11 05:47:30;;;;;;;54.20;32.20;;;3.00;99.90;;;;;;5094338;28;20240;-46
2021/10/11 05:49:57;;;;;;;40.47;29.15;;;3.00;99.90;;;;;;5091687;28;20429;-44
2021/10/11 05:52:25;;;;;;;48.20;30.83;;;3.10;99.90;;;;;;5095330;28;20447;-49
2021/10/11 05:54:52;;;;;;;42.80;29.45;;;3.20;99.90;;;;;;5098384;28;20202;-48
2021/10/11 05:57:19;;;;;;;48.58;29.80;;;3.20;99.90;;;;;;5088469;28;20195;-46
2021/10/11 05:59:46;;;;;;;47.17;32.47;;;3.20;99.90;;;;;;5092750;28;20198;-44
2021/10/11 06:02:14;;;;;;;49.80;30.63;;;3.30;99.90;;;;;;5096521;28;20260;-47
2021/10/11 06:04:41;;;;;;;47.17;33.90;;;3.10;99.90;;;;;;5094153;28;20198;-49
2021/10/11 06:07:09;;;;;;;57.97;35.42;;;3.20;99.90;;;;;;5092197;28;20245;-44
2021/10/11 06:09:36;;;;;;;52.15;35.42;;;3.50;99.90;;;;;;5095773;28;20194;-46
2021/10/11 06:12:03;;;;;;;60.60;36.97;;;3.90;99.90;;;;;;5097745;28;20266;-44
2021/10/11 06:14:53;;;;;;;49.78;33.60;;;4.20;99.90;;;;;;5095882;28;20195;-47
2021/10/11 06:17:21;;;;;;;41.97;30.67;;;4.60;99.90;;;;;;5089226;28;20232;-44
2021/10/11 06:19:48;;;;;;;45.30;27.95;;;4.90;99.90;;;;;;5096835;28;20250;-46
2021/10/11 06:22:16;;;;;;;42.95;30.20;;;5.40;99.90;;;;;;5092184;28;20201;-50
2021/10/11 06:24:43;;;;;;;44.55;30.63;;;6.00;99.90;;;;;;5094105;28;20209;-44
2021/10/11 06:27:10;;;;;;;32.90;25.27;;;6.70;99.90;;;;;;5087968;28;20213;-43
2021/10/11 06:29:38;;;;;;;42.55;27.67;;;7.20;99.90;;;;;;5097866;28;20509;-43
2021/10/11 06:32:05;;;;;;;35.47;27.88;;;7.40;99.90;;;;;;5093796;28;20467;-45
2021/10/11 06:34:32;;;;;;;43.78;27.65;;;7.40;99.90;;;;;;5092856;28;20370;-47
2021/10/11 06:36:59;;;;;;;47.42;27.00;;;7.20;99.90;;;;;;5097277;28;20240;-46
2021/10/11 06:39:26;;;;;;;45.55;28.23;;;6.80;99.90;;;;;;5086877;28;20195;-47
2021/10/11 06:41:56;;;;;;;38.70;25.98;;;6.70;99.90;;;;;;5098167;28;20217;-54
2021/10/11 06:44:23;;;;;;;38.05;26.75;;;6.30;99.90;;;;;;5095452;28;20266;-49
2021/10/11 06:46:50;;;;;;;34.30;24.80;;;6.00;99.90;;;;;;5098908;28;20201;-48
2021/10/11 06:49:18;;;;;;;34.85;25.95;;;6.00;99.90;;;;;;5087481;28;20229;-51
2021/10/11 06:51:45;;;;;;;35.83;27.33;;;5.90;99.90;;;;;;5090454;28;20263;-46
2021/10/11 06:54:13;;;;;;;41.30;31.10;;;6.00;99.90;;;;;;5100369;28;20221;-45
2021/10/11 06:56:40;;;;;;;39.13;24.17;;;6.20;99.90;;;;;;5095854;28;20371;-44
2021/10/11 06:59:07;;;;;;;41.63;26.42;;;6.20;99.90;;;;;;5091208;28;20195;-46
2021/10/11 07:01:34;;;;;;;39.95;23.55;;;6.60;99.90;;;;;;5096395;28;20255;-49
2021/10/11 07:04:03;;;;;;;36.22;23.73;;;6.80;99.90;;;;;;5091746;28;20218;-46
2021/10/11 07:06:30;;;;;;;35.50;25.60;;;6.90;99.90;;;;;;5089246;28;20204;-44
2021/10/11 07:08:58;;;;;;;27.92;21.52;;;6.70;99.90;;;;;;5091825;28;20502;-46
2021/10/11 07:11:25;;;;;;;37.47;27.10;;;6.90;99.90;;;;;;5100117;28;20232;-49
2021/10/11 07:13:52;;;;;;;36.50;23.92;;;7.20;99.90;;;;;;5091980;28;20541;-47
2021/10/11 07:16:19;;;;;;;34.70;22.05;;;7.80;99.90;;;;;;5075617;28;20240;-48
2021/10/11 07:18:46;;;;;;;27.15;21.02;;;8.60;99.90;;;;;;5096461;28;20202;-50
2021/10/11 07:21:13;;;;;;;41.65;25.95;;;10.20;99.90;;;;;;5093834;28;20214;-46
2021/10/11 07:23:41;;;;;;;31.25;23.00;;;12.40;99.90;;;;;;5099405;28;20624;-47
2021/10/11 07:26:08;;;;;;;26.85;19.40;;;14.60;99.90;;;;;;5092655;28;20218;-48
2021/10/11 07:28:36;;;;;;;23.55;18.98;;;16.60;99.90;;;;;;5099296;28;20500;-42
2021/10/11 07:31:04;;;;;;;28.83;21.77;;;17.70;97.70;;;;;;5091157;28;20264;-42
2021/10/11 07:33:31;;;;;;;27.77;19.93;;;19.30;94.90;;;;;;5084956;28;20576;-46
2021/10/11 07:35:58;;;;;;;21.87;19.80;;;20.50;90.80;;;;;;5093516;28;20413;-47
2021/10/11 07:38:25;;;;;;;24.47;20.23;;;21.60;89.10;;;;;;5083775;28;20405;-46
2021/10/11 07:40:53;;;;;;;22.90;20.53;;;22.70;82.00;;;;;;5092413;28;20440;-46
2021/10/11 07:43:20;;;;;;;21.57;19.13;;;23.40;79.10;;;;;;5076777;28;20460;-50
2021/10/11 07:45:47;;;;;;;25.20;21.27;;;23.80;76.70;;;;;;5093786;28;20441;-45
2021/10/11 07:48:15;;;;;;;25.23;22.67;;;23.80;73.40;;;;;;5093738;28;20505;-47
2021/10/11 07:50:43;;;;;;;20.87;18.73;;;24.40;72.30;;;;;;5091937;28;20414;-44
2021/10/11 07:53:13;;;;;;;23.97;19.47;;;24.70;68.00;;;;;;5093176;28;20455;-45
2021/10/11 07:55:42;;;;;;;21.80;19.60;;;23.90;68.90;;;;;;5078465;28;20427;-43
2021/10/11 07:58:09;;;;;;;29.03;21.37;;;24.10;69.60;;;;;;5092766;28;20488;-49
2021/10/11 08:00:37;;;;;;;23.13;20.70;;;24.30;69.00;;;;;;5091818;28;21079;-46
2021/10/11 08:03:04;;;;;;;22.30;19.30;;;25.00;66.50;;;;;;5091293;28;20701;-44
2021/10/11 08:05:31;;;;;;;22.63;20.00;;;25.50;65.20;;;;;;5089365;28;20496;-43
2021/10/11 08:07:58;;;;;;;31.40;21.60;;;26.10;62.70;;;;;;5099703;28;20435;-47
2021/10/11 08:10:25;;;;;;;22.87;20.67;;;26.40;61.00;;;;;;5096485;28;20680;-46
2021/10/11 08:12:52;;;;;;;33.70;20.80;;;26.70;60.50;;;;;;5097808;28;20904;-46
2021/10/11 08:15:20;;;;;;;20.20;18.37;;;26.80;60.20;;;;;;5089174;28;20501;-45
2021/10/11 08:17:50;;;;;;;23.80;19.00;;;26.60;59.60;;;;;;5096941;28;20430;-51
2021/10/11 08:20:18;;;;;;;23.30;18.23;;;26.60;59.10;;;;;;5096893;28;20469;-46
2021/10/11 08:22:46;;;;;;;21.10;18.90;;;26.30;58.80;;;;;;5096874;28;20504;-46
2021/10/11 08:25:16;;;;;;;23.23;18.93;;;26.50;58.40;;;;;;5098432;28;20438;-50
2021/10/11 08:27:43;;;;;;;20.33;18.30;;;25.60;58.40;;;;;;5097700;28;20580;-45
2021/10/11 08:30:10;;;;;;;21.57;19.43;;;25.00;60.00;;;;;;5100159;28;20666;-46
2021/10/11 08:32:38;;;;;;;20.30;18.30;;;24.40;61.70;;;;;;5091977;28;20585;-51
2021/10/11 08:35:06;;;;;;;23.73;18.40;;;23.40;63.60;;;;;;5099061;28;20595;-45
2021/10/11 08:37:33;;;;;;;19.93;17.30;;;22.40;67.00;;;;;;5093443;28;20463;-49
2021/10/11 08:40:00;;;;;;;16.83;15.33;;;21.60;70.80;;;;;;5099597;28;20689;-45
2021/10/11 08:42:27;;;;;;;17.53;15.60;;;21.60;70.00;;;;;;5096957;28;20453;-48
2021/10/11 08:44:54;;;;;;;18.90;17.00;;;21.90;69.50;;;;;;5099442;28;20578;-48
2021/10/11 08:47:21;;;;;;;16.70;15.03;;;21.90;69.30;;;;;;5099004;28;20445;-47
2021/10/11 08:49:50;;;;;;;21.33;16.10;;;21.90;69.40;;;;;;5091171;28;20441;-46
2021/10/11 08:52:22;;;;;;;17.20;15.43;;;20.80;72.60;;;;;;5094650;28;20465;-53
2021/10/11 08:54:50;;;;;;;17.07;15.27;;;19.80;74.90;;;;;;5100048;28;20424;-45
2021/10/11 08:57:34;;;;;;;16.67;15.00;;;19.70;75.70;;;;;;5097390;28;20424;-50
2021/10/11 09:00:16;;;;;;;17.53;14.93;;;20.10;75.50;;;;;;5092147;28;20407;-44
2021/10/11 09:02:51;;;;;;;18.40;15.37;;;20.20;75.00;;;;;;5097950;28;20651;-44
2021/10/11 09:05:40;;;;;;;19.03;14.80;;;20.50;75.20;;;;;;5094104;28;20429;-51
2021/10/11 09:08:12;;;;;;;19.33;15.17;;;20.60;73.70;;;;;;5100145;28;20439;-44
2021/10/11 09:10:51;;;;;;;18.70;14.73;;;20.00;75.10;;;;;;5091698;28;20413;-46
2021/10/11 09:13:22;;;;;;;12.97;11.70;;;19.00;78.10;;;;;;5098831;28;20787;-49
2021/10/11 09:15:51;;;;;;;14.93;13.53;;;18.60;77.60;;;;;;5069705;28;20435;-46
2021/10/11 09:18:29;;;;;;;13.53;12.20;;;17.70;78.70;;;;;;5100333;28;20408;-44
2021/10/11 09:20:57;;;;;;;15.33;12.93;;;17.40;80.20;;;;;;5089108;28;20405;-47
2021/10/11 09:23:29;;;;;;;14.50;13.00;;;17.00;81.30;;;;;;5100864;28;20485;-49
2021/10/11 09:25:59;;;;;;;14.03;12.70;;;16.90;81.60;;;;;;5089563;28;20460;-49
2021/10/11 09:28:27;;;;;;;14.97;13.37;;;16.90;83.20;;;;;;5101859;28;20454;-50
2021/10/11 09:31:10;;;;;;;12.53;11.33;;;17.00;83.30;;;;;;5094876;28;20437;-45
2021/10/11 09:33:38;;;;;;;13.57;12.27;;;17.10;84.20;;;;;;5095788;28;20524;-44
2021/10/11 09:36:05;;;;;;;13.97;12.57;;;17.00;84.40;;;;;;5098376;28;20669;-47
2021/10/11 09:38:32;;;;;;;14.73;11.90;;;17.10;83.90;;;;;;5096825;28;20455;-47
2021/10/11 09:41:00;;;;;;;13.33;12.23;;;17.20;83.80;;;;;;5074071;28;20434;-45
2021/10/11 09:43:29;;;;;;;13.10;11.90;;;16.90;84.30;;;;;;5097476;28;20595;-44
2021/10/11 09:46:11;;;;;;;14.87;12.60;;;16.90;86.20;;;;;;5092350;28;20450;-48
2021/10/11 09:48:49;;;;;;;20.23;15.27;;;16.80;87.40;;;;;;5098532;28;20503;-44
2021/10/11 09:51:16;;;;;;;17.87;13.77;;;16.70;87.20;;;;;;5094062;28;20437;-50
2021/10/11 09:53:45;;;;;;;21.20;13.50;;;16.80;88.90;;;;;;5096852;28;20843;-45
2021/10/11 09:56:13;;;;;;;12.83;11.53;;;16.90;87.80;;;;;;5099122;28;20475;-52
2021/10/11 09:58:40;;;;;;;12.90;11.60;;;16.90;87.90;;;;;;5089729;28;20446;-50
2021/10/11 10:01:10;;;;;;;11.87;10.80;;;17.10;88.40;;;;;;5096459;28;20438;-47
2021/10/11 10:03:37;;;;;;;12.40;11.30;;;17.50;87.00;;;;;;5092430;28;20454;-51
2021/10/11 10:06:07;;;;;;;12.53;11.27;;;17.50;86.60;;;;;;5097979;28;20423;-45
2021/10/11 10:08:37;;;;;;;13.10;11.93;;;17.70;85.80;;;;;;5093574;28;20470;-47
2021/10/11 10:11:06;;;;;;;12.30;11.00;;;17.90;86.00;;;;;;5080783;28;20450;-50
2021/10/11 10:13:46;;;;;;;15.90;11.47;;;17.90;85.90;;;;;;5095619;28;20444;-47
2021/10/11 10:16:14;;;;;;;16.50;11.47;;;17.90;86.00;;;;;;5085225;28;20414;-46
2021/10/11 10:18:43;;;;;;;10.80;9.80;;;17.90;86.10;;;;;;5096704;28;20468;-45
2021/10/11 10:21:16;;;;;;;13.30;11.03;;;17.80;86.20;;;;;;5093321;28;20410;-51
2021/10/11 10:23:54;;;;;;;11.13;10.00;;;18.00;85.00;;;;;;5087625;28;20780;-45
2021/10/11 10:26:36;;;;;;;11.23;9.97;;;18.20;85.10;;;;;;5078675;28;20733;-51
2021/10/11 10:29:19;;;;;;;10.57;9.40;;;18.30;84.20;;;;;;5097592;28;20500;-45
2021/10/11 10:31:46;;;;;;;9.93;8.93;;;18.30;84.00;;;;;;5096079;28;20452;-49
2021/10/11 10:34:21;;;;;;;12.30;10.37;;;18.00;84.90;;;;;;5088879;28;20480;-46
2021/10/11 10:37:11;;;;;;;10.90;9.90;;;17.80;86.10;;;;;;5092227;28;20413;-49
2021/10/11 10:39:45;;;;;;;14.43;9.43;;;17.50;87.70;;;;;;5085972;28;20416;-45
2021/10/11 10:42:27;;;;;;;10.60;9.60;;;17.20;88.00;;;;;;5096457;28;20639;-46
2021/10/11 10:44:56;;;;;;;22.67;12.33;;;16.90;89.30;;;;;;5094064;28;20415;-49
2021/10/11 10:47:40;;;;;;;12.93;8.37;;;16.80;90.10;;;;;;5094374;28;20412;-46
2021/10/11 10:50:15;;;;;;;8.50;7.80;;;17.00;90.00;;;;;;5091771;28;20512;-44
2021/10/11 10:52:50;;;;;;;9.17;8.20;;;16.80;90.10;;;;;;5095325;28;20471;-49
2021/10/11 10:55:18;;;;;;;14.70;10.37;;;16.70;90.10;;;;;;5097500;28;20635;-49
2021/10/11 10:57:45;;;;;;;10.67;8.43;;;16.70;90.40;;;;;;5096462;28;20471;-45
2021/10/11 11:00:18;;;;;;;13.53;9.77;;;16.70;90.50;;;;;;5090689;28;20437;-48
2021/10/11 11:02:46;;;;;;;9.60;8.60;;;16.50;90.70;;;;;;5096929;28;20665;-44
2021/10/11 11:05:15;;;;;;;10.83;9.83;;;16.40;90.90;;;;;;5088743;28;20468;-53
2021/10/11 11:07:44;;;;;;;10.60;9.53;;;16.40;91.00;;;;;;5097981;28;20502;-47
2021/10/11 11:10:16;;;;;;;11.53;8.50;;;16.70;91.00;;;;;;5095041;28;20726;-45
2021/10/11 11:12:50;;;;;;;9.80;8.97;;;16.80;90.70;;;;;;5098625;28;20639;-44
2021/10/11 11:15:29;;;;;;;9.93;9.03;;;16.70;91.00;;;;;;5093940;28;20441;-51
2021/10/11 11:18:00;;;;;;;9.60;8.73;;;16.80;90.50;;;;;;5098156;28;20490;-53
2021/10/11 11:20:29;;;;;;;9.67;8.67;;;16.70;90.90;;;;;;5092632;28;20414;-52
2021/10/11 11:23:02;;;;;;;9.50;8.20;;;16.40;90.80;;;;;;5095772;28;20873;-52
2021/10/11 11:25:38;;;;;;;8.40;7.63;;;16.40;90.90;;;;;;5096186;28;20408;-49
2021/10/11 11:28:07;;;;;;;9.63;8.60;;;16.50;91.40;;;;;;5100628;28;20489;-46
2021/10/11 11:30:35;;;;;;;9.50;8.30;;;16.50;91.20;;;;;;5094540;28;20437;-43
2021/10/11 11:33:07;;;;;;;8.90;8.10;;;16.40;91.10;;;;;;5090157;28;20487;-49
2021/10/11 11:35:38;;;;;;;9.87;8.97;;;16.20;91.00;;;;;;5087999;28;20427;-48
2021/10/11 11:38:07;;;;;;;10.13;7.90;;;16.20;91.30;;;;;;5086808;28;20638;-47
2021/10/11 11:40:38;;;;;;;10.37;8.70;;;16.10;91.90;;;;;;5101115;28;20425;-49
2021/10/11 11:43:07;;;;;;;8.95;8.05;;;16.00;91.80;;;;;;5096035;28;20485;-45
2021/10/11 11:45:43;;;;;;;9.77;8.80;;;15.90;92.00;;;;;;5103931;28;20205;-51
2021/10/11 11:48:10;;;;;;;7.43;6.68;;;15.90;92.00;;;;;;5092449;28;20448;-44
2021/10/11 11:50:38;;;;;;;8.93;8.03;;;15.90;92.50;;;;;;5089325;28;20269;-49
2021/10/11 11:53:10;;;;;;;11.90;8.77;;;15.90;92.20;;;;;;5092663;28;20514;-47
2021/10/11 11:55:39;;;;;;;9.50;7.10;;;15.90;92.40;;;;;;5100945;28;20196;-46
2021/10/11 11:58:13;;;;;;;11.18;8.30;;;15.90;92.40;;;;;;5097520;28;20519;-45
2021/10/11 12:00:48;;;;;;;9.20;8.17;;;16.00;92.60;;;;;;5096991;28;20231;-52
2021/10/11 12:03:20;;;;;;;8.15;7.50;;;15.90;92.60;;;;;;5096616;28;20457;-50
2021/10/11 12:05:50;;;;;;;9.00;8.23;;;15.60;92.70;;;;;;5092545;28;20259;-47
2021/10/11 12:08:18;;;;;;;8.98;7.72;;;15.60;93.00;;;;;;5098846;28;20237;-45
2021/10/11 12:10:57;;;;;;;14.10;9.30;;;15.70;93.20;;;;;;5098840;28;20200;-46
2021/10/11 12:13:32;;;;;;;9.27;8.32;;;15.50;93.10;;;;;;5088636;28;20814;-46
2021/10/11 12:16:09;;;;;;;8.32;7.53;;;15.40;93.50;;;;;;5092475;28;20195;-53
2021/10/11 12:18:41;;;;;;;10.15;9.32;;;15.20;93.90;;;;;;5098957;28;20241;-47
2021/10/11 12:21:20;;;;;;;9.27;8.45;;;15.10;94.10;;;;;;5087765;28;20234;-46
2021/10/11 12:23:49;;;;;;;9.40;8.60;;;15.00;94.20;;;;;;5099033;28;20300;-51
2021/10/11 12:26:16;;;;;;;9.90;9.00;;;15.00;94.50;;;;;;5090746;28;20509;-46
2021/10/11 12:29:06;;;;;;;9.23;7.72;;;15.10;94.80;;;;;;5101539;28;20431;-46
2021/10/11 12:31:36;;;;;;;14.20;8.70;;;15.10;95.00;;;;;;5082209;28;20229;-46
2021/10/11 12:34:12;;;;;;;11.18;9.80;;;15.00;95.10;;;;;;5093210;28;20233;-45
2021/10/11 12:36:46;;;;;;;9.10;8.40;;;14.90;95.50;;;;;;5098670;28;20240;-50
2021/10/11 12:39:14;;;;;;;8.65;7.82;;;14.80;95.80;;;;;;5094519;28;20213;-45
2021/10/11 12:41:46;;;;;;;11.75;9.00;;;14.80;95.90;;;;;;5099514;28;20233;-46
2021/10/11 12:44:17;;;;;;;9.73;8.40;;;14.80;96.20;;;;;;5096543;28;20227;-48
2021/10/11 12:46:46;;;;;;;9.32;8.63;;;14.90;96.30;;;;;;5097326;28;20215;-49
2021/10/11 12:49:17;;;;;;;11.13;9.88;;;14.90;96.30;;;;;;5095076;28;20206;-47